ilmateenistus.ee keskkonnaagentuur.ee
EETN Tallinn
FTEO31 EETN 180500 CCA
TAF COR EETN 180552Z 1806/1906 27014KT 9999 BKN025 TEMPO 1806/1811
    SCT010 SCT020CB BKN025 BECMG 1822/1824 21010KT PROB30 TEMPO 1900/1903
    BKN005=

METAR EETN 181050Z 31013KT 270V340 9999 FEW040 21/07 Q1013 NOSIG=
Tallinn
EEKA Kärdla
METAR EEKA 181050Z 22008KT CAVOK 20/05 Q1014=
Kärdla
EEKE Kuressaare
FCEO32 EETN 180500 AAA
TAF AMD EEKE 180900Z 1806/1812 CNL=

METAR EEKE 181050Z 23008KT 190V260 9999 FEW030 19/11 Q1015=
Kuressaare
EEPU Pärnu
METAR EEPU 181050Z 20010KT 170V230 CAVOK 21/15 Q1013=
Pärnu
EETU Tartu
METAR EETU 181050Z 26010KT CAVOK 25/11 Q1013=
Tartu
EEEI Ämari
METAR EEEI 181050Z 28012KT 9999 FEW035 20/09 Q1013 NOSIG=
Ämari